sensor_id;sensor_type;location;lat;lon;timestamp;P1;durP1;ratioP1;P2;durP2;ratioP2
43823;SDS011;29470;53.550;9.926;2023-11-18T00:00:37;9.88;;;5.65;;
43823;SDS011;29470;53.550;9.926;2023-11-18T00:05:42;11.05;;;5.65;;
43823;SDS011;29470;53.550;9.926;2023-11-18T00:10:44;9.27;;;4.68;;
43823;SDS011;29470;53.550;9.926;2023-11-18T00:15:48;11.00;;;5.57;;
43823;SDS011;29470;53.550;9.926;2023-11-18T00:20:53;11.00;;;5.30;;
43823;SDS011;29470;53.550;9.926;2023-11-18T00:25:58;7.15;;;4.72;;
43823;SDS011;29470;53.550;9.926;2023-11-18T00:31:01;9.70;;;5.13;;
43823;SDS011;29470;53.550;9.926;2023-11-18T00:36:07;8.38;;;4.82;;
43823;SDS011;29470;53.550;9.926;2023-11-18T00:41:11;8.38;;;4.82;;
43823;SDS011;29470;53.550;9.926;2023-11-18T00:46:14;10.02;;;4.88;;
43823;SDS011;29470;53.550;9.926;2023-11-18T00:51:18;10.32;;;4.47;;
43823;SDS011;29470;53.550;9.926;2023-11-18T00:56:21;10.50;;;5.22;;
43823;SDS011;29470;53.550;9.926;2023-11-18T01:01:24;10.05;;;5.13;;
43823;SDS011;29470;53.550;9.926;2023-11-18T01:06:28;10.00;;;5.38;;
43823;SDS011;29470;53.550;9.926;2023-11-18T01:11:33;10.63;;;5.85;;
43823;SDS011;29470;53.550;9.926;2023-11-18T01:16:37;9.85;;;4.90;;
43823;SDS011;29470;53.550;9.926;2023-11-18T01:21:41;11.32;;;5.82;;
43823;SDS011;29470;53.550;9.926;2023-11-18T01:26:44;12.30;;;6.13;;
43823;SDS011;29470;53.550;9.926;2023-11-18T01:31:47;10.70;;;5.82;;
43823;SDS011;29470;53.550;9.926;2023-11-18T01:36:54;9.57;;;5.88;;
43823;SDS011;29470;53.550;9.926;2023-11-18T01:41:58;11.50;;;5.97;;
43823;SDS011;29470;53.550;9.926;2023-11-18T01:47:04;10.38;;;5.72;;
43823;SDS011;29470;53.550;9.926;2023-11-18T01:52:13;9.60;;;5.67;;
43823;SDS011;29470;53.550;9.926;2023-11-18T01:57:17;11.32;;;6.20;;
43823;SDS011;29470;53.550;9.926;2023-11-18T02:02:20;8.50;;;5.32;;
43823;SDS011;29470;53.550;9.926;2023-11-18T02:07:24;12.13;;;6.20;;
43823;SDS011;29470;53.550;9.926;2023-11-18T02:12:29;7.90;;;5.10;;
43823;SDS011;29470;53.550;9.926;2023-11-18T02:17:41;10.15;;;6.00;;
43823;SDS011;29470;53.550;9.926;2023-11-18T02:22:47;11.40;;;6.18;;
43823;SDS011;29470;53.550;9.926;2023-11-18T02:27:52;10.20;;;6.20;;
43823;SDS011;29470;53.550;9.926;2023-11-18T02:32:56;10.57;;;6.18;;
43823;SDS011;29470;53.550;9.926;2023-11-18T02:38:04;10.25;;;5.63;;
43823;SDS011;29470;53.550;9.926;2023-11-18T02:43:10;10.00;;;5.60;;
43823;SDS011;29470;53.550;9.926;2023-11-18T02:48:13;12.40;;;6.00;;
43823;SDS011;29470;53.550;9.926;2023-11-18T02:53:16;8.75;;;5.80;;
43823;SDS011;29470;53.550;9.926;2023-11-18T02:58:21;11.85;;;5.88;;
43823;SDS011;29470;53.550;9.926;2023-11-18T03:03:24;11.60;;;6.43;;
43823;SDS011;29470;53.550;9.926;2023-11-18T03:08:27;11.15;;;5.72;;
43823;SDS011;29470;53.550;9.926;2023-11-18T03:13:32;10.02;;;5.97;;
43823;SDS011;29470;53.550;9.926;2023-11-18T03:18:35;10.00;;;6.00;;
43823;SDS011;29470;53.550;9.926;2023-11-18T03:23:53;12.17;;;6.30;;
43823;SDS011;29470;53.550;9.926;2023-11-18T03:28:57;10.85;;;5.95;;
43823;SDS011;29470;53.550;9.926;2023-11-18T03:34:00;11.80;;;6.38;;
43823;SDS011;29470;53.550;9.926;2023-11-18T03:39:03;10.75;;;6.07;;
43823;SDS011;29470;53.550;9.926;2023-11-18T03:44:09;9.80;;;6.22;;
43823;SDS011;29470;53.550;9.926;2023-11-18T03:49:11;10.95;;;5.90;;
43823;SDS011;29470;53.550;9.926;2023-11-18T03:54:14;12.02;;;6.88;;
43823;SDS011;29470;53.550;9.926;2023-11-18T03:59:18;12.85;;;6.90;;
43823;SDS011;29470;53.550;9.926;2023-11-18T04:04:21;14.43;;;7.20;;
43823;SDS011;29470;53.550;9.926;2023-11-18T04:09:24;12.68;;;7.05;;
43823;SDS011;29470;53.550;9.926;2023-11-18T04:14:29;12.82;;;6.97;;
43823;SDS011;29470;53.550;9.926;2023-11-18T04:19:34;12.43;;;6.60;;
43823;SDS011;29470;53.550;9.926;2023-11-18T04:24:37;14.77;;;6.72;;
43823;SDS011;29470;53.550;9.926;2023-11-18T04:29:41;11.88;;;6.65;;
43823;SDS011;29470;53.550;9.926;2023-11-18T04:34:44;13.95;;;7.05;;
43823;SDS011;29470;53.550;9.926;2023-11-18T04:39:47;12.93;;;7.22;;
43823;SDS011;29470;53.550;9.926;2023-11-18T04:44:51;18.52;;;7.75;;
43823;SDS011;29470;53.550;9.926;2023-11-18T04:49:54;16.27;;;7.75;;
43823;SDS011;29470;53.550;9.926;2023-11-18T04:54:57;13.77;;;7.10;;
43823;SDS011;29470;53.550;9.926;2023-11-18T05:00:03;17.13;;;7.95;;
43823;SDS011;29470;53.550;9.926;2023-11-18T05:05:12;13.82;;;7.40;;
43823;SDS011;29470;53.550;9.926;2023-11-18T05:10:16;12.95;;;6.95;;
43823;SDS011;29470;53.550;9.926;2023-11-18T05:15:21;14.38;;;7.35;;
43823;SDS011;29470;53.550;9.926;2023-11-18T05:20:26;13.02;;;6.88;;
43823;SDS011;29470;53.550;9.926;2023-11-18T05:25:29;13.70;;;6.97;;
43823;SDS011;29470;53.550;9.926;2023-11-18T05:30:37;13.82;;;7.10;;
43823;SDS011;29470;53.550;9.926;2023-11-18T05:35:41;15.00;;;7.57;;
43823;SDS011;29470;53.550;9.926;2023-11-18T05:40:50;15.57;;;7.80;;
43823;SDS011;29470;53.550;9.926;2023-11-18T05:45:59;15.27;;;7.40;;
43823;SDS011;29470;53.550;9.926;2023-11-18T05:51:23;16.45;;;7.38;;
43823;SDS011;29470;53.550;9.926;2023-11-18T05:56:28;15.80;;;8.23;;
43823;SDS011;29470;53.550;9.926;2023-11-18T06:01:33;15.07;;;7.30;;
43823;SDS011;29470;53.550;9.926;2023-11-18T06:06:38;14.10;;;7.40;;
43823;SDS011;29470;53.550;9.926;2023-11-18T06:11:40;15.07;;;7.45;;
43823;SDS011;29470;53.550;9.926;2023-11-18T06:16:45;16.65;;;7.93;;
43823;SDS011;29470;53.550;9.926;2023-11-18T06:21:51;16.45;;;7.72;;
43823;SDS011;29470;53.550;9.926;2023-11-18T06:26:54;20.55;;;9.77;;
43823;SDS011;29470;53.550;9.926;2023-11-18T06:31:58;15.98;;;7.78;;
43823;SDS011;29470;53.550;9.926;2023-11-18T06:37:01;16.50;;;8.07;;
43823;SDS011;29470;53.550;9.926;2023-11-18T06:42:11;17.58;;;7.75;;
43823;SDS011;29470;53.550;9.926;2023-11-18T06:47:16;18.60;;;9.35;;
43823;SDS011;29470;53.550;9.926;2023-11-18T06:52:21;16.83;;;8.10;;
43823;SDS011;29470;53.550;9.926;2023-11-18T06:57:29;19.38;;;8.70;;
43823;SDS011;29470;53.550;9.926;2023-11-18T07:02:35;16.85;;;8.13;;
43823;SDS011;29470;53.550;9.926;2023-11-18T07:07:38;19.40;;;8.95;;
43823;SDS011;29470;53.550;9.926;2023-11-18T07:12:44;15.35;;;8.00;;
43823;SDS011;29470;53.550;9.926;2023-11-18T07:17:50;17.88;;;8.70;;
43823;SDS011;29470;53.550;9.926;2023-11-18T07:22:57;17.75;;;9.45;;
43823;SDS011;29470;53.550;9.926;2023-11-18T07:28:00;20.92;;;10.77;;
43823;SDS011;29470;53.550;9.926;2023-11-18T07:33:04;18.67;;;9.48;;
43823;SDS011;29470;53.550;9.926;2023-11-18T07:38:07;18.17;;;9.45;;
43823;SDS011;29470;53.550;9.926;2023-11-18T07:43:12;18.17;;;9.35;;
43823;SDS011;29470;53.550;9.926;2023-11-18T07:48:16;20.55;;;9.90;;
43823;SDS011;29470;53.550;9.926;2023-11-18T07:53:20;20.92;;;9.27;;
43823;SDS011;29470;53.550;9.926;2023-11-18T07:58:23;16.95;;;8.38;;
43823;SDS011;29470;53.550;9.926;2023-11-18T08:03:29;17.67;;;8.85;;
43823;SDS011;29470;53.550;9.926;2023-11-18T08:08:33;17.63;;;8.98;;
43823;SDS011;29470;53.550;9.926;2023-11-18T08:13:36;16.63;;;8.10;;
43823;SDS011;29470;53.550;9.926;2023-11-18T08:18:40;16.15;;;7.50;;
43823;SDS011;29470;53.550;9.926;2023-11-18T08:23:43;17.10;;;7.50;;
43823;SDS011;29470;53.550;9.926;2023-11-18T08:28:46;12.02;;;5.35;;
43823;SDS011;29470;53.550;9.926;2023-11-18T08:33:50;14.70;;;5.65;;
43823;SDS011;29470;53.550;9.926;2023-11-18T08:38:56;14.05;;;6.50;;
43823;SDS011;29470;53.550;9.926;2023-11-18T08:43:59;17.23;;;7.15;;
43823;SDS011;29470;53.550;9.926;2023-11-18T08:49:23;13.52;;;6.25;;
43823;SDS011;29470;53.550;9.926;2023-11-18T08:54:26;16.50;;;6.07;;
43823;SDS011;29470;53.550;9.926;2023-11-18T08:59:38;13.57;;;6.43;;
43823;SDS011;29470;53.550;9.926;2023-11-18T09:04:42;14.68;;;6.60;;
43823;SDS011;29470;53.550;9.926;2023-11-18T09:09:45;13.15;;;5.40;;
43823;SDS011;29470;53.550;9.926;2023-11-18T09:14:50;12.00;;;6.22;;
43823;SDS011;29470;53.550;9.926;2023-11-18T09:19:56;13.30;;;6.55;;
43823;SDS011;29470;53.550;9.926;2023-11-18T09:24:59;11.80;;;5.70;;
43823;SDS011;29470;53.550;9.926;2023-11-18T09:30:02;12.27;;;6.70;;
43823;SDS011;29470;53.550;9.926;2023-11-18T09:35:16;14.27;;;6.70;;
43823;SDS011;29470;53.550;9.926;2023-11-18T09:40:21;12.07;;;6.03;;
43823;SDS011;29470;53.550;9.926;2023-11-18T09:45:31;13.75;;;6.38;;
43823;SDS011;29470;53.550;9.926;2023-11-18T09:50:36;12.63;;;5.50;;
43823;SDS011;29470;53.550;9.926;2023-11-18T09:55:45;13.70;;;6.53;;
43823;SDS011;29470;53.550;9.926;2023-11-18T10:00:57;11.57;;;6.07;;
43823;SDS011;29470;53.550;9.926;2023-11-18T10:06:05;14.63;;;6.00;;
43823;SDS011;29470;53.550;9.926;2023-11-18T10:11:11;10.70;;;6.30;;
43823;SDS011;29470;53.550;9.926;2023-11-18T10:16:15;12.10;;;5.85;;
43823;SDS011;29470;53.550;9.926;2023-11-18T10:21:21;10.43;;;5.45;;
43823;SDS011;29470;53.550;9.926;2023-11-18T10:26:42;9.98;;;5.50;;
43823;SDS011;29470;53.550;9.926;2023-11-18T10:31:50;9.43;;;5.22;;
43823;SDS011;29470;53.550;9.926;2023-11-18T10:37:09;11.50;;;5.55;;
43823;SDS011;29470;53.550;9.926;2023-11-18T10:42:13;11.07;;;5.57;;
43823;SDS011;29470;53.550;9.926;2023-11-18T10:47:19;11.15;;;5.30;;
43823;SDS011;29470;53.550;9.926;2023-11-18T10:52:23;8.02;;;4.53;;
43823;SDS011;29470;53.550;9.926;2023-11-18T10:57:32;9.10;;;4.90;;
43823;SDS011;29470;53.550;9.926;2023-11-18T11:02:36;8.52;;;5.07;;
43823;SDS011;29470;53.550;9.926;2023-11-18T11:07:44;8.77;;;5.38;;
43823;SDS011;29470;53.550;9.926;2023-11-18T11:12:50;9.68;;;4.78;;
43823;SDS011;29470;53.550;9.926;2023-11-18T11:17:54;9.23;;;4.35;;
43823;SDS011;29470;53.550;9.926;2023-11-18T11:23:05;8.90;;;5.30;;
43823;SDS011;29470;53.550;9.926;2023-11-18T11:28:21;8.82;;;5.30;;
43823;SDS011;29470;53.550;9.926;2023-11-18T11:33:26;7.88;;;4.47;;
43823;SDS011;29470;53.550;9.926;2023-11-18T11:38:39;7.55;;;4.25;;
43823;SDS011;29470;53.550;9.926;2023-11-18T11:43:48;9.82;;;4.97;;
43823;SDS011;29470;53.550;9.926;2023-11-18T11:48:51;8.77;;;4.50;;
43823;SDS011;29470;53.550;9.926;2023-11-18T11:54:00;10.32;;;5.10;;
43823;SDS011;29470;53.550;9.926;2023-11-18T11:59:16;16.58;;;6.03;;
43823;SDS011;29470;53.550;9.926;2023-11-18T12:04:22;7.55;;;4.70;;
43823;SDS011;29470;53.550;9.926;2023-11-18T12:09:31;7.47;;;4.45;;
43823;SDS011;29470;53.550;9.926;2023-11-18T12:14:51;8.20;;;4.65;;
43823;SDS011;29470;53.550;9.926;2023-11-18T12:19:57;8.73;;;4.93;;
43823;SDS011;29470;53.550;9.926;2023-11-18T12:30:38;5.43;;;3.10;;
43823;SDS011;29470;53.550;9.926;2023-11-18T12:36:12;10.17;;;3.97;;
43823;SDS011;29470;53.550;9.926;2023-11-18T12:41:42;6.60;;;3.83;;
43823;SDS011;29470;53.550;9.926;2023-11-18T12:46:48;8.40;;;4.38;;
43823;SDS011;29470;53.550;9.926;2023-11-18T12:51:54;7.88;;;3.92;;
43823;SDS011;29470;53.550;9.926;2023-11-18T12:57:00;5.65;;;3.70;;
43823;SDS011;29470;53.550;9.926;2023-11-18T13:02:06;6.63;;;3.35;;
43823;SDS011;29470;53.550;9.926;2023-11-18T13:07:14;5.07;;;2.83;;
43823;SDS011;29470;53.550;9.926;2023-11-18T13:12:20;5.97;;;3.50;;
43823;SDS011;29470;53.550;9.926;2023-11-18T13:17:25;9.00;;;3.03;;
43823;SDS011;29470;53.550;9.926;2023-11-18T13:22:29;6.22;;;3.10;;
43823;SDS011;29470;53.550;9.926;2023-11-18T13:27:47;5.28;;;2.72;;
43823;SDS011;29470;53.550;9.926;2023-11-18T13:32:51;4.47;;;2.83;;
43823;SDS011;29470;53.550;9.926;2023-11-18T13:37:56;4.97;;;3.17;;
43823;SDS011;29470;53.550;9.926;2023-11-18T13:43:04;6.47;;;3.00;;
43823;SDS011;29470;53.550;9.926;2023-11-18T13:48:11;5.70;;;3.13;;
43823;SDS011;29470;53.550;9.926;2023-11-18T13:53:15;6.32;;;3.10;;
43823;SDS011;29470;53.550;9.926;2023-11-18T13:58:19;7.20;;;3.70;;
43823;SDS011;29470;53.550;9.926;2023-11-18T14:03:22;8.35;;;3.42;;
43823;SDS011;29470;53.550;9.926;2023-11-18T14:08:26;6.85;;;3.90;;
43823;SDS011;29470;53.550;9.926;2023-11-18T14:13:30;6.20;;;3.50;;
43823;SDS011;29470;53.550;9.926;2023-11-18T14:18:36;10.38;;;4.07;;
43823;SDS011;29470;53.550;9.926;2023-11-18T14:23:42;7.85;;;3.53;;
43823;SDS011;29470;53.550;9.926;2023-11-18T14:28:47;9.27;;;4.72;;
43823;SDS011;29470;53.550;9.926;2023-11-18T14:33:50;8.50;;;4.38;;
43823;SDS011;29470;53.550;9.926;2023-11-18T14:38:53;7.90;;;4.68;;
43823;SDS011;29470;53.550;9.926;2023-11-18T14:43:58;7.60;;;4.28;;
43823;SDS011;29470;53.550;9.926;2023-11-18T14:49:02;10.15;;;5.00;;
43823;SDS011;29470;53.550;9.926;2023-11-18T14:54:07;7.55;;;4.20;;
43823;SDS011;29470;53.550;9.926;2023-11-18T14:59:11;10.38;;;4.78;;
43823;SDS011;29470;53.550;9.926;2023-11-18T15:04:17;10.70;;;4.88;;
43823;SDS011;29470;53.550;9.926;2023-11-18T15:09:20;12.05;;;4.93;;
43823;SDS011;29470;53.550;9.926;2023-11-18T15:14:26;10.35;;;5.18;;
43823;SDS011;29470;53.550;9.926;2023-11-18T15:19:30;14.18;;;6.35;;
43823;SDS011;29470;53.550;9.926;2023-11-18T15:24:34;12.55;;;6.32;;
43823;SDS011;29470;53.550;9.926;2023-11-18T15:29:38;13.75;;;6.20;;
43823;SDS011;29470;53.550;9.926;2023-11-18T15:34:50;9.60;;;5.00;;
43823;SDS011;29470;53.550;9.926;2023-11-18T15:39:53;10.45;;;4.68;;
43823;SDS011;29470;53.550;9.926;2023-11-18T15:44:58;9.25;;;4.60;;
43823;SDS011;29470;53.550;9.926;2023-11-18T15:50:02;10.75;;;4.72;;
43823;SDS011;29470;53.550;9.926;2023-11-18T15:55:06;7.35;;;4.05;;
43823;SDS011;29470;53.550;9.926;2023-11-18T16:11:47;7.85;;;4.35;;
43823;SDS011;29470;53.550;9.926;2023-11-18T16:16:51;9.65;;;5.07;;
43823;SDS011;29470;53.550;9.926;2023-11-18T16:21:55;10.13;;;4.47;;
43823;SDS011;29470;53.550;9.926;2023-11-18T16:26:59;9.60;;;4.60;;
43823;SDS011;29470;53.550;9.926;2023-11-18T16:32:04;10.32;;;5.25;;
43823;SDS011;29470;53.550;9.926;2023-11-18T16:44:14;11.30;;;5.47;;
43823;SDS011;29470;53.550;9.926;2023-11-18T16:49:19;12.45;;;6.78;;
43823;SDS011;29470;53.550;9.926;2023-11-18T16:54:40;15.30;;;6.70;;
43823;SDS011;29470;53.550;9.926;2023-11-18T16:59:44;11.77;;;6.32;;
43823;SDS011;29470;53.550;9.926;2023-11-18T17:04:47;14.00;;;7.07;;
43823;SDS011;29470;53.550;9.926;2023-11-18T17:09:54;15.15;;;7.15;;
43823;SDS011;29470;53.550;9.926;2023-11-18T17:14:59;15.65;;;7.60;;
43823;SDS011;29470;53.550;9.926;2023-11-18T17:20:15;16.20;;;8.10;;
43823;SDS011;29470;53.550;9.926;2023-11-18T17:25:19;17.42;;;8.35;;
43823;SDS011;29470;53.550;9.926;2023-11-18T17:30:26;17.83;;;8.45;;
43823;SDS011;29470;53.550;9.926;2023-11-18T17:35:38;17.50;;;9.05;;
43823;SDS011;29470;53.550;9.926;2023-11-18T17:40:44;22.88;;;9.80;;
43823;SDS011;29470;53.550;9.926;2023-11-18T17:45:49;22.95;;;10.68;;
43823;SDS011;29470;53.550;9.926;2023-11-18T17:50:53;20.80;;;9.20;;
43823;SDS011;29470;53.550;9.926;2023-11-18T17:56:00;21.27;;;10.43;;
43823;SDS011;29470;53.550;9.926;2023-11-18T18:01:04;22.83;;;10.38;;
43823;SDS011;29470;53.550;9.926;2023-11-18T18:06:11;20.20;;;10.15;;
43823;SDS011;29470;53.550;9.926;2023-11-18T18:11:16;23.75;;;10.75;;
43823;SDS011;29470;53.550;9.926;2023-11-18T18:16:21;22.48;;;10.75;;
43823;SDS011;29470;53.550;9.926;2023-11-18T18:21:24;22.10;;;10.52;;
43823;SDS011;29470;53.550;9.926;2023-11-18T18:26:26;24.75;;;11.25;;
43823;SDS011;29470;53.550;9.926;2023-11-18T18:31:31;24.05;;;11.05;;
43823;SDS011;29470;53.550;9.926;2023-11-18T18:36:34;22.00;;;11.73;;
43823;SDS011;29470;53.550;9.926;2023-11-18T18:41:41;23.35;;;10.73;;
43823;SDS011;29470;53.550;9.926;2023-11-18T18:46:48;25.88;;;12.07;;
43823;SDS011;29470;53.550;9.926;2023-11-18T18:51:51;28.33;;;12.70;;
43823;SDS011;29470;53.550;9.926;2023-11-18T18:56:54;32.00;;;13.48;;
43823;SDS011;29470;53.550;9.926;2023-11-18T19:01:59;24.65;;;12.27;;
43823;SDS011;29470;53.550;9.926;2023-11-18T19:07:02;29.00;;;14.10;;
43823;SDS011;29470;53.550;9.926;2023-11-18T19:12:07;31.42;;;13.68;;
43823;SDS011;29470;53.550;9.926;2023-11-18T19:17:12;25.83;;;13.80;;
43823;SDS011;29470;53.550;9.926;2023-11-18T19:22:24;26.50;;;12.40;;
43823;SDS011;29470;53.550;9.926;2023-11-18T19:27:27;29.73;;;13.45;;
43823;SDS011;29470;53.550;9.926;2023-11-18T19:32:33;36.05;;;16.25;;
43823;SDS011;29470;53.550;9.926;2023-11-18T19:37:36;25.20;;;11.02;;
43823;SDS011;29470;53.550;9.926;2023-11-18T19:42:39;27.58;;;12.15;;
43823;SDS011;29470;53.550;9.926;2023-11-18T19:47:43;26.88;;;11.38;;
43823;SDS011;29470;53.550;9.926;2023-11-18T19:52:46;27.75;;;12.85;;
43823;SDS011;29470;53.550;9.926;2023-11-18T19:57:51;23.73;;;11.38;;
43823;SDS011;29470;53.550;9.926;2023-11-18T20:02:55;24.55;;;10.93;;
43823;SDS011;29470;53.550;9.926;2023-11-18T20:07:58;30.15;;;11.73;;
43823;SDS011;29470;53.550;9.926;2023-11-18T20:13:01;29.75;;;13.18;;
43823;SDS011;29470;53.550;9.926;2023-11-18T20:18:07;27.95;;;13.38;;
43823;SDS011;29470;53.550;9.926;2023-11-18T20:23:11;29.73;;;13.20;;
43823;SDS011;29470;53.550;9.926;2023-11-18T20:28:15;23.75;;;11.05;;
43823;SDS011;29470;53.550;9.926;2023-11-18T20:33:19;29.48;;;13.60;;
43823;SDS011;29470;53.550;9.926;2023-11-18T20:38:23;29.80;;;14.02;;
43823;SDS011;29470;53.550;9.926;2023-11-18T20:43:28;30.67;;;12.68;;
43823;SDS011;29470;53.550;9.926;2023-11-18T20:48:33;27.63;;;12.95;;
43823;SDS011;29470;53.550;9.926;2023-11-18T20:53:35;29.88;;;12.60;;
43823;SDS011;29470;53.550;9.926;2023-11-18T20:58:39;23.33;;;11.23;;
43823;SDS011;29470;53.550;9.926;2023-11-18T21:03:47;28.48;;;12.30;;
43823;SDS011;29470;53.550;9.926;2023-11-18T21:08:50;26.10;;;11.68;;
43823;SDS011;29470;53.550;9.926;2023-11-18T21:13:54;26.17;;;11.93;;
43823;SDS011;29470;53.550;9.926;2023-11-18T21:18:58;24.48;;;10.27;;
43823;SDS011;29470;53.550;9.926;2023-11-18T21:24:03;27.45;;;12.02;;
43823;SDS011;29470;53.550;9.926;2023-11-18T21:29:06;25.17;;;11.20;;
43823;SDS011;29470;53.550;9.926;2023-11-18T21:34:10;27.30;;;12.30;;
43823;SDS011;29470;53.550;9.926;2023-11-18T21:39:13;26.83;;;12.23;;
43823;SDS011;29470;53.550;9.926;2023-11-18T21:44:19;25.77;;;11.50;;
43823;SDS011;29470;53.550;9.926;2023-11-18T21:49:24;25.30;;;11.77;;
43823;SDS011;29470;53.550;9.926;2023-11-18T21:54:27;24.83;;;11.10;;
43823;SDS011;29470;53.550;9.926;2023-11-18T21:59:32;26.00;;;11.90;;
43823;SDS011;29470;53.550;9.926;2023-11-18T22:04:36;25.25;;;12.65;;
43823;SDS011;29470;53.550;9.926;2023-11-18T22:09:39;22.88;;;10.88;;
43823;SDS011;29470;53.550;9.926;2023-11-18T22:14:42;23.95;;;10.90;;
43823;SDS011;29470;53.550;9.926;2023-11-18T22:19:46;24.52;;;11.98;;
43823;SDS011;29470;53.550;9.926;2023-11-18T22:24:50;19.00;;;9.48;;
43823;SDS011;29470;53.550;9.926;2023-11-18T22:29:54;18.38;;;8.98;;
43823;SDS011;29470;53.550;9.926;2023-11-18T22:35:01;20.65;;;9.35;;
43823;SDS011;29470;53.550;9.926;2023-11-18T22:40:04;21.25;;;9.48;;
43823;SDS011;29470;53.550;9.926;2023-11-18T22:45:11;15.60;;;7.95;;
43823;SDS011;29470;53.550;9.926;2023-11-18T22:50:19;16.30;;;8.60;;
43823;SDS011;29470;53.550;9.926;2023-11-18T22:55:24;19.85;;;8.38;;
43823;SDS011;29470;53.550;9.926;2023-11-18T23:00:27;16.27;;;8.80;;
43823;SDS011;29470;53.550;9.926;2023-11-18T23:05:45;13.15;;;7.20;;
43823;SDS011;29470;53.550;9.926;2023-11-18T23:10:48;15.18;;;7.95;;
43823;SDS011;29470;53.550;9.926;2023-11-18T23:15:52;13.30;;;7.07;;
43823;SDS011;29470;53.550;9.926;2023-11-18T23:20:59;11.35;;;6.53;;
43823;SDS011;29470;53.550;9.926;2023-11-18T23:26:04;14.32;;;7.78;;
43823;SDS011;29470;53.550;9.926;2023-11-18T23:31:07;14.45;;;7.25;;
43823;SDS011;29470;53.550;9.926;2023-11-18T23:36:15;14.95;;;8.38;;
43823;SDS011;29470;53.550;9.926;2023-11-18T23:41:18;15.60;;;7.65;;
43823;SDS011;29470;53.550;9.926;2023-11-18T23:46:22;14.25;;;7.70;;
43823;SDS011;29470;53.550;9.926;2023-11-18T23:51:29;12.68;;;7.32;;
43823;SDS011;29470;53.550;9.926;2023-11-18T23:56:32;13.65;;;7.45;;
